KLBE/LBE METAR and TAF weather

Enter ICAO airport designator
Station Type Date Time Source
KLBE METAR 2021/03/01 03:55 UTC NOAA

KLBE 010355Z AUTO 20013KT 10SM SCT016 BKN026 OVC055 15/15 A2977 RMK AO2


Station Type Date Time Source
KLBE Decoded METAR 2021/03/01 03:55 UTC NOAA

Latrobe / Westmorland, PA, United States (KLBE) 40-17N 079-24W
Feb 28, 2021 - 10:55 PM EST / 2021.03.01 0355 UTC
Wind: from the SSW (200 degrees) at 15 MPH (13 KT):0
Visibility: 10 mile(s):0
Sky conditions: overcast
Temperature: 59 F (15 C)
Dew Point: 59 F (15 C)
Relative Humidity: 100%
Pressure (altimeter): 29.77 in. Hg (1008 hPa)
ob: KLBE 010355Z AUTO 20013KT 10SM SCT016 BKN026 OVC055 15/15 A2977 RMK AO2
cycle: 4

Station Type Date Time Source
KLBE TAF 2021/03/01 04:48 UTC NOAA

TAF
AMD KLBE 010345Z 0104/0124 20012KT P6SM -RA SCT008 OVC015
TEMPO 0104/0108 3SM -RA BR BKN008
FM011100 29011KT 6SM BR VCSH OVC012
FM011700 29013KT P6SM BKN025
FM011900 30015G22KT P6SM BKN050

Example: see airport list